x

East Hatteras - 150 Nm East Of Cape Hatteras (41001) Wave Buoy

6:50 - Sat 1st Aug 2015 All times are EDT. -4 hours from GMT.

  • Sig Wave height 5.6ft
  • Swell Direction
  • Peak Period 8s
  • Average Period 6s
  • Wind
    20mph, 25mph gusts
  • Sea Temp 82°f
  • Ar Temp 82°f
  • Sea Pressure 1014mb
  • East Hatteras - 150 Nm East Of Cape Hatteras
  • East Hatteras - 150 Nm East Of Cape Hatteras

More Historic Weather Station data

Upgrade to MSW Pro to gain access to the past 30 days of data for over 8000 Wavebouys and Weather Stations around the globe.

Join Pro

Comparision Forecast

View Surf forecast
   
Sáb 08/01 6:50 5.5ft 8s 6s 20 25 mph 1014mb 82f 82f
6:40  -   -   -  20 25 mph 1014mb 82f 82f
6:30  -   -   -  20 25 mph 1014.1mb 82f 82f
6:20  -   -   -  22 27 mph 1014mb 82f 82f
6:10  -   -   -  20 27 mph 1014.1mb 82f 81f
6:00  -   -   -  18 22 mph 1014.3mb 82f 81f
5:50  -   -   -  18 22 mph 1014.4mb 82f 81f
5:40  -   -   -  16 22 mph 1014.4mb 82f 81f
5:30  -   -   -  16 22 mph 1014.4mb 82f 81f
5:20  -   -   -  16 20 mph 1014.3mb 82f 81f
5:10  -   -   -  16 20 mph 1014.1mb 82f 80f
5:00  -   -   -  16 20 mph 1014.1mb 82f 80f
4:50 6ft 8s 6s 16 20 mph 1014.3mb 82f 80f
4:40  -   -   -  16 20 mph 1014.3mb 82f 80f
4:30  -   -   -  16 20 mph 1014.4mb 82f 80f
4:20  -   -   -  16 20 mph 1014.4mb 82f 80f
4:10  -   -   -  16 20 mph 1014.4mb 82f 80f
4:00  -   -   -  16 20 mph 1014.5mb 82f 80f
3:50 7ft 8s 6s 16 18 mph 1014.6mb 82f 80f
3:40  -   -   -  13 18 mph 1014.6mb 82f 80f
3:30  -   -   -  13 18 mph 1014.5mb 82f 80f
3:20  -   -   -  13 18 mph 1014.5mb 82f 79f
3:10  -   -   -  11 16 mph 1014.5mb 82f 79f
3:00  -   -   -  11 16 mph 1014.5mb 82f 79f
2:50 6.5ft 8s 6s 13 18 mph 1014.5mb 82f 79f
2:40  -   -   -  13 20 mph 1014.4mb 82f 79f
2:30  -   -   -  11 16 mph 1014.5mb 82f 78f
2:20  -   -   -  7 11 mph 1014.5mb 82f 77f
2:10  -   -   -  7 11 mph 1014.5mb 82f 77f
2:00  -   -   -  4 9 mph 1014.5mb 82f 77f
1:50 7ft 8s 6s 7 11 mph 1014.8mb 82f 76f
1:40  -   -   -  11 13 mph 1015mb 82f 76f
1:30  -   -   -  16 20 mph 1015mb 82f 76f
1:20  -   -   -  16 22 mph 1015mb 82f 76f
1:10  -   -   -  16 22 mph 1014.9mb 82f 77f
1:00  -   -   -  22 31 mph 1015mb 82f 79f
12:50 6.5ft 8s 6s 22 31 mph 1014mb 82f 80f
12:40  -   -   -  16 27 mph 1014.5mb 82f 80f
12:30  -   -   -  7 9 mph 1014.6mb 82f 78f
12:20  -   -   -  4 9 mph 1014.8mb 82f 78f
12:10  -   -   -  7 11 mph 1014.9mb 82f 77f
12:00  -   -   -  11 16 mph 1015mb 82f 78f
11:50 6.5ft 8s 6s 4 11 mph 1015.1mb 82f 79f
11:40 6.5ft  -  6s 2 4 mph 1014.9mb 82f 79f
11:30  -   -   -  2 4 mph 1015mb 82f 78f
11:20  -   -   -  2 4 mph 1015mb 82f 78f
11:10  -   -   -  2 9 mph 1015.3mb 82f 78f
11:00  -   -   -  2 7 mph 1015.3mb 82f 77f
10:50 7ft 8s 6s 2 9 mph 1015.3mb 82f 77f
10:40  -   -   -  4 9 mph 1015.3mb 82f 78f
10:30  -   -   -  4 9 mph 1015.4mb 82f 78f
10:20  -   -   -  4 11 mph 1015mb 82f 78f
10:10  -   -   -  4 11 mph 1015mb 82f 78f
10:00  -   -   -  4 9 mph 1015mb 82f 78f
9:50 7.5ft 8s 6s 7 16 mph 1014.9mb 82f 77f
9:40  -   -   -  7 13 mph 1014.9mb 82f 77f
9:30  -   -   -  9 13 mph 1015.1mb 82f 77f
9:20  -   -   -  9 13 mph 1015.3mb 82f 78f
9:10  -   -   -  13 20 mph 1015.3mb 82f 78f
9:00  -   -   -  13 22 mph 1015.3mb 82f 78f
8:50 6.5ft 8s 6s 4 11 mph 1015.3mb 82f 76f
8:40  -   -   -  2 7 mph 1015.3mb 82f 75f
8:30  -   -   -  4 11 mph 1015.3mb 82f 75f
8:20  -   -   -  9 13 mph 1015mb 82f 75f
8:10  -   -   -  11 16 mph 1014.8mb 82f 75f
8:00  -   -   -  9 13 mph 1014.9mb 82f 75f
7:50 7ft 8s 6s 11 16 mph 1015mb 82f 75f
7:40  -   -   -  9 13 mph 1014.9mb 82f 76f
7:30  -   -   -  11 18 mph 1014.5mb 82f 76f
7:20  -   -   -  11 18 mph 1014.6mb 82f 76f
7:10  -   -   -  11 18 mph 1014.8mb 82f 75f
7:00  -   -   -  11 18 mph 1014.8mb 82f 76f
6:50 6.5ft 8s 6s 11 18 mph 1014.8mb 82f 76f
6:40  -   -   -  11 16 mph 1014.5mb 82f 77f
6:30  -   -   -  11 18 mph 1014.3mb 82f 77f
6:20  -   -   -  13 18 mph 1014.4mb 82f 76f
6:10  -   -   -  13 20 mph 1014.3mb 82f 77f
6:00  -   -   -  9 13 mph 1014.5mb 82f 77f
5:50 7ft 8s 6s 9 13 mph 1014.1mb 82f 78f
5:40  -   -   -  9 13 mph 1014mb 82f 78f
5:30  -   -   -  9 13 mph 1014mb 82f 78f
5:20  -   -   -  11 18 mph 1013.9mb 82f 78f
5:10  -   -   -  11 16 mph 1013.8mb 82f 78f
5:00  -   -   -  11 16 mph 1013.6mb 82f 78f
4:50 7.5ft 8s 6s 11 13 mph 1013.9mb 82f 78f
4:40  -   -   -  11 18 mph 1014mb 82f 78f
4:30  -   -   -  11 18 mph 1014mb 82f 78f
4:20  -   -   -  13 18 mph 1014mb 82f 78f
4:10  -   -   -  11 18 mph 1013.8mb 82f 78f
4:00  -   -   -  9 11 mph 1013.8mb 82f 78f
3:50 7ft 8s 6s 11 18 mph 1013.8mb 82f 78f
3:40  -   -   -  13 22 mph 1013.5mb 82f 81f
3:30  -   -   -  18 25 mph 1013.5mb 82f 82f
3:20  -   -   -  20 25 mph 1013.5mb 82f 82f
3:10  -   -   -  20 27 mph 1013.5mb 82f 82f
3:00  -   -   -  18 25 mph 1013.5mb 82f 82f
2:50 7.5ft 9s 6s 20 25 mph 1013.5mb 82f 82f
2:40  -   -   -  20 25 mph 1013.6mb 82f 82f
2:30  -   -   -  16 22 mph 1013.6mb 82f 81f
2:20  -   -   -  11 18 mph 1013.9mb 82f 80f
2:10  -   -   -  13 18 mph 1013.8mb 82f 79f
2:00  -   -   -  13 20 mph 1013.6mb 82f 79f
1:50 7ft 8s 6s 11 18 mph 1013.8mb 82f 79f
1:40  -   -   -  7 16 mph 1014mb 82f 78f
1:30  -   -   -  13 27 mph 1014mb 82f 78f
1:20  -   -   -  20 25 mph 1014mb 82f 79f
1:10  -   -   -  18 25 mph 1014mb 82f 80f
1:00  -   -   -  16 20 mph 1014.3mb 82f 80f
12:50 8ft 8s 6s 13 18 mph 1014.3mb 82f 80f
12:40  -   -   -  16 22 mph 1014mb 82f 79f
12:30  -   -   -  18 25 mph 1014.1mb 82f 79f
12:20  -   -   -  20 27 mph 1014.4mb 82f 80f
12:10  -   -   -  18 22 mph 1014.5mb 82f 82f
12:00  -   -   -  16 22 mph 1014.4mb 82f 82f
Sex 07/31 11:50 9ft 8s 6s 16 20 mph 1014.4mb 82f 82f
11:40  -   -   -  18 25 mph 1014.3mb 82f 82f
11:30  -   -   -  18 22 mph 1014.3mb 82f 82f
11:20  -   -   -  18 22 mph 1014.1mb 82f 82f
11:10  -   -   -  16 22 mph 1014mb 82f 82f
11:00  -   -   -  20 25 mph 1014mb 82f 82f
10:50 9ft 8s 7s 18 22 mph 1014mb 82f 82f
10:40  -   -   -  20 25 mph 1013.9mb 82f 82f
10:30  -   -   -  20 27 mph 1013.8mb 82f 82f
10:20  -   -   -  20 27 mph 1013.6mb 82f 82f
10:10  -   -   -  20 25 mph 1013.6mb 82f 82f
10:00  -   -   -  20 25 mph 1013.5mb 82f 81f
9:50 9.5ft 10s 7s 22 29 mph 1013.5mb 82f 82f
9:40  -   -   -  22 29 mph 1013.4mb 82f 82f
9:30  -   -   -  22 29 mph 1013.1mb 82f 82f
9:20  -   -   -  22 29 mph 1013mb 82f 82f
9:10  -   -   -  22 29 mph 1013mb 82f 82f
9:00  -   -   -  25 31 mph 1012.9mb 82f 82f
8:50 10.5ft 9s 7s 25 31 mph 1012.8mb 82f 82f
8:40  -   -   -  25 31 mph 1012.6mb 82f 82f
8:30  -   -   -  25 29 mph 1012.5mb 82f 82f
8:20  -   -   -  25 31 mph 1012.4mb 83f 82f
8:10  -   -   -  25 31 mph 1012.3mb 83f 82f
8:00  -   -   -  27 34 mph 1012.1mb 83f 82f
7:50 12ft 9s 7s 27 31 mph 1012mb 83f 82f
7:40  -   -   -  27 36 mph 1011.8mb 83f 82f
7:10  -   -   -  29 36 mph 1011.5mb 83f 81f
7:00  -   -   -  29 36 mph 1011.3mb 83f 82f
6:50 12.5ft 9s 7s 29 34 mph 1011mb 83f 82f
6:40  -   -   -  29 36 mph 1011mb 83f 82f
6:30  -   -   -  29 38 mph 1010.8mb 83f 82f
6:20  -   -   -  29 36 mph 1010.6mb 83f 82f
6:10  -   -   -  29 38 mph 1010.6mb 83f 81f
6:00  -   -   -  29 36 mph 1010.5mb 83f 82f
5:50 11.5ft 10s 7s 29 36 mph 1010.4mb 83f 81f
5:40  -   -   -  29 38 mph 1010.5mb 83f 81f
5:30  -   -   -  27 36 mph 1010.5mb 83f 82f
5:20  -   -   -  25 31 mph 1010.5mb 83f 81f
5:10  -   -   -  27 34 mph 1010.6mb 83f 82f
5:00  -   -   -  27 34 mph 1010.5mb 83f 82f
4:50 12.5ft 10s 7s 25 34 mph 1010.4mb 83f 82f
4:40  -   -   -  25 34 mph 1010.3mb 83f 81f
4:30  -   -   -  27 34 mph 1010.4mb 83f 81f
4:20  -   -   -  27 36 mph 1010.4mb 83f 82f
4:10  -   -   -  27 36 mph 1010.5mb 83f 82f
4:00  -   -   -  27 34 mph 1010.5mb 83f 82f
3:50 13.5ft 10s 7s 27 36 mph 1010.5mb 83f 82f
3:40  -   -   -  27 36 mph 1010.6mb 83f 82f
3:30  -   -   -  29 38 mph 1010.6mb 83f 82f
3:20  -   -   -  31 38 mph 1010.9mb 83f 82f
3:10  -   -   -  31 40 mph 1011mb 83f 82f
3:00  -   -   -  29 38 mph 1011.1mb 83f 82f
2:50 12ft 9s 7s 31 40 mph 1011.1mb 83f 82f
2:40  -   -   -  29 36 mph 1011mb 83f 83f
2:30  -   -   -  29 40 mph 1011.3mb 83f 82f
2:20  -   -   -  29 38 mph 1011.5mb 83f 82f
2:10  -   -   -  29 38 mph 1011.5mb 83f 82f
2:00  -   -   -  31 38 mph 1011.6mb 83f 82f
1:50 11.5ft 9s 7s 31 40 mph 1011.9mb 83f 82f
1:40  -   -   -  29 40 mph 1012mb 83f 82f
1:30  -   -   -  31 40 mph 1012.1mb 83f 83f
1:20  -   -   -  29 43 mph 1012.1mb 83f 83f
1:10  -   -   -  25 34 mph 1012.4mb 83f 82f
1:00  -   -   -  27 34 mph 1012.4mb 83f 82f
12:50 11ft 10s 7s 27 38 mph 1012.5mb 83f 82f
12:40  -   -   -  27 36 mph 1012.6mb 83f 82f
12:30  -   -   -  27 34 mph 1012.5mb 83f 82f
12:20  -   -   -  27 36 mph 1012.8mb 83f 82f
12:10  -   -   -  25 34 mph 1013mb 83f 82f
12:00  -   -   -  22 31 mph 1013.1mb 83f 83f
11:50 11ft 10s 7s 25 36 mph 1013.3mb 83f 83f
11:40  -   -   -  25 34 mph 1013.4mb 83f 82f
11:30  -   -   -  25 31 mph 1013.4mb 83f 82f
11:20  -   -   -  25 31 mph 1013.4mb 83f 82f
11:10  -   -   -  25 34 mph 1013.4mb 83f 83f
11:00  -   -   -  27 36 mph 1013.1mb 83f 83f
10:50 11ft 10s 7s 29 36 mph 1013.1mb 83f 82f
10:40  -   -   -  27 34 mph 1013mb 83f 82f
10:30  -   -   -  25 34 mph 1013mb 83f 82f
10:20  -   -   -  27 36 mph 1012.9mb 83f 82f
10:10  -   -   -  25 34 mph 1012.8mb 83f 82f
10:00  -   -   -  27 34 mph 1012.8mb 83f 82f
9:50 11ft 9s 7s 25 31 mph 1012.9mb 83f 82f
9:40  -   -   -  25 34 mph 1013mb 83f 82f
9:30  -   -   -  27 34 mph 1012.9mb 83f 82f
9:20  -   -   -  29 36 mph 1013mb 83f 82f
9:10  -   -   -  29 38 mph 1013mb 83f 82f
9:00  -   -   -  27 36 mph 1013.1mb 83f 82f
8:50 9ft 8s 6s 27 34 mph 1013.3mb 83f 82f
8:40  -   -   -  25 34 mph 1013.4mb 83f 82f
8:30  -   -   -  27 36 mph 1013.5mb 83f 82f
8:20  -   -   -  27 36 mph 1013.5mb 83f 82f
8:10  -   -   -  27 34 mph 1013.5mb 83f 82f
8:00  -   -   -  27 34 mph 1013.4mb 83f 82f
7:50 9.5ft 8s 6s 27 36 mph 1013.1mb 83f 82f
7:40  -   -   -  27 31 mph 1013.1mb 83f 82f
7:30  -   -   -  25 34 mph 1013mb 83f 82f
7:20  -   -   -  22 29 mph 1013.1mb 83f 82f
7:10  -   -   -  22 31 mph 1013.1mb 83f 82f
7:00  -   -   -  25 31 mph 1013mb 83f 82f
6:50 9ft 9s 6s 25 34 mph 1013.1mb 83f 81f
6:40  -   -   -  27 36 mph 1013.1mb 83f 82f
6:30  -   -   -  27 36 mph 1013.1mb 83f 82f
6:20  -   -   -  27 34 mph 1013.1mb 83f 82f
6:10  -   -   -  25 34 mph 1013.1mb 83f 82f
6:00  -   -   -  25 31 mph 1013.4mb 83f 82f
5:50 8.5ft 9s 6s 25 34 mph 1013.4mb 83f 82f
5:40  -   -   -  27 34 mph 1013.1mb 83f 82f
5:30  -   -   -  25 31 mph 1013.1mb 83f 82f
5:20  -   -   -  27 34 mph 1013.1mb 83f 82f
5:10  -   -   -  25 31 mph 1013.1mb 83f 82f
5:00  -   -   -  25 34 mph 1013.1mb 83f 82f
4:50 9ft 8s 6s 25 31 mph 1013mb 83f 82f
4:40  -   -   -  22 29 mph 1013mb 83f 82f
4:30  -   -   -  25 29 mph 1013.1mb 83f 82f
4:20  -   -   -  22 31 mph 1013.3mb 83f 81f
4:10  -   -   -  22 31 mph 1013.5mb 83f 81f
4:00  -   -   -  25 29 mph 1013.3mb 83f 82f
3:50 8ft 8s 6s 25 29 mph 1013.3mb 83f 82f
3:40  -   -   -  22 29 mph 1013.3mb 83f 82f
3:30  -   -   -  22 29 mph 1013.3mb 83f 82f
3:20  -   -   -  25 29 mph 1013.5mb 83f 82f
3:10  -   -   -  25 31 mph 1013.5mb 83f 82f
3:00  -   -   -  25 29 mph 1013.8mb 83f 82f
2:50 8ft 8s 6s 25 31 mph 1013.8mb 83f 82f
2:40  -   -   -  25 29 mph 1013.9mb 83f 82f
2:30  -   -   -  22 29 mph 1013.9mb 83f 82f
2:20  -   -   -  22 29 mph 1014mb 83f 82f
2:10  -   -   -  22 29 mph 1014mb 83f 82f
2:00  -   -   -  22 27 mph 1014.1mb 83f 82f
1:50 7ft 8s 6s 22 27 mph 1014.3mb 83f 82f
1:40  -   -   -  22 27 mph 1014.5mb 83f 82f
1:30  -   -   -  20 27 mph 1014.5mb 83f 82f
1:20  -   -   -  22 27 mph 1014.5mb 83f 82f
1:10  -   -   -  22 29 mph 1014.6mb 83f 82f
1:00  -   -   -  22 29 mph 1014.8mb 83f 82f
12:50 7.5ft 8s 6s 22 27 mph 1014.9mb 83f 82f
12:40  -   -   -  22 27 mph 1015mb 83f 82f
12:30  -   -   -  22 29 mph 1015mb 83f 82f
12:20  -   -   -  22 29 mph 1015.1mb 83f 82f
12:10  -   -   -  22 27 mph 1015mb 83f 82f
12:00  -   -   -  22 27 mph 1015.1mb 83f 82f
Qui 07/30 11:50 7ft 8s 6s 20 27 mph 1015.4mb 83f 82f
11:40  -   -   -  22 27 mph 1015.4mb 83f 82f
11:30  -   -   -  22 27 mph 1015.5mb 83f 82f
11:20  -   -   -  22 27 mph 1015.5mb 83f 82f
11:10  -   -   -  22 27 mph 1015.5mb 83f 82f
11:00  -   -   -  20 27 mph 1015.5mb 83f 82f
10:50 7.5ft 8s 6s 20 27 mph 1015.6mb 83f 82f
10:40  -   -   -  20 27 mph 1015.8mb 83f 82f
10:30  -   -   -  22 27 mph 1015.9mb 83f 82f
10:20  -   -   -  20 25 mph 1015.9mb 83f 82f
10:10  -   -   -  20 25 mph 1015.9mb 83f 82f
10:00  -   -   -  20 25 mph 1015.9mb 83f 82f
9:50 7ft 8s 6s 20 27 mph 1015.6mb 83f 82f
9:40  -   -   -  20 25 mph 1015.5mb 83f 82f
9:30  -   -   -  20 27 mph 1015.4mb 83f 82f
9:20  -   -   -  20 27 mph 1015.1mb 83f 82f
9:10  -   -   -  20 25 mph 1015mb 83f 82f
9:00  -   -   -  22 27 mph 1015.3mb 83f 82f
8:50 6.5ft 8s 6s 22 27 mph 1015.1mb 83f 82f
8:40  -   -   -  22 27 mph 1015.1mb 83f 82f
8:30  -   -   -  22 27 mph 1015mb 83f 82f
8:20  -   -   -  22 27 mph 1015mb 83f 82f
8:10  -   -   -  20 25 mph 1015mb 83f 82f
8:00  -   -   -  20 25 mph 1015mb 83f 82f
7:50 7ft 8s 6s 22 27 mph 1015.1mb 83f 82f
7:40  -   -   -  22 29 mph 1015mb 83f 83f
7:30  -   -   -  22 29 mph 1015mb 83f 82f
7:20  -   -   -  22 29 mph 1015mb 83f 82f
7:10  -   -   -  22 29 mph 1014.9mb 83f 82f
7:00  -   -   -  22 29 mph 1015mb 83f 82f
6:50 7ft 7s 6s 22 27 mph 1015mb 83f 82f
6:40  -   -   -  22 27 mph 1014.9mb 83f 82f
6:30  -   -   -  22 27 mph 1014.9mb 83f 82f
6:20  -   -   -  22 29 mph 1015mb 83f 82f
6:10  -   -   -  22 27 mph 1015mb 83f 82f
6:00  -   -   -  22 27 mph 1014.9mb 83f 82f
5:50 6.5ft 8s 6s 22 29 mph 1015mb 83f 82f
5:40  -   -   -  22 29 mph 1015mb 83f 82f
5:30  -   -   -  22 29 mph 1015mb 83f 82f
5:20  -   -   -  22 27 mph 1015.1mb 83f 82f
5:10  -   -   -  22 29 mph 1015.1mb 83f 82f
5:00  -   -   -  22 27 mph 1015.4mb 83f 82f
4:50 6ft 7s 6s 20 27 mph 1015.3mb 83f 82f
4:40 6ft  -  6s 20 27 mph 1015.3mb 83f 82f
4:30  -   -   -  20 27 mph 1015.3mb 83f 82f
4:20  -   -   -  20 25 mph 1015.4mb 83f 82f
4:10  -   -   -  20 25 mph 1015.4mb 83f 82f
4:00  -   -   -  20 25 mph 1015.5mb 83f 82f
3:50 6ft 7s 6s 20 25 mph 1015.6mb 83f 82f
3:40  -   -   -  20 27 mph 1015.9mb 83f 82f
3:30  -   -   -  20 25 mph 1015.9mb 83f 82f
3:20  -   -   -  20 27 mph 1016mb 83f 82f
3:10  -   -   -  20 22 mph 1016mb 83f 82f
3:00  -   -   -  20 25 mph 1016.1mb 83f 82f
2:50 6ft 7s 5s 18 25 mph 1016.4mb 83f 82f
2:40  -   -   -  18 25 mph 1016.5mb 83f 82f
2:30  -   -   -  20 25 mph 1016.6mb 83f 82f
2:20  -   -   -  20 25 mph 1016.8mb 83f 82f
2:10  -   -   -  20 27 mph 1016.9mb 83f 82f
2:00  -   -   -  22 29 mph 1017mb 83f 82f
1:50 5.5ft 6s 5s 22 27 mph 1017.1mb 83f 82f
1:40  -   -   -  22 29 mph 1017.3mb 83f 82f
1:30  -   -   -  22 27 mph 1017.3mb 83f 82f
1:20  -   -   -  20 27 mph 1017.3mb 83f 82f
1:10  -   -   -  22 27 mph 1017.4mb 83f 82f
1:00  -   -   -  20 27 mph 1017.4mb 83f 82f
12:50 5ft 7s 5s 20 25 mph 1017.5mb 83f 82f
12:40  -   -   -  20 25 mph 1017.5mb 83f 82f
12:30  -   -   -  20 25 mph 1017.5mb 83f 82f
12:20  -   -   -  20 25 mph 1017.6mb 83f 82f
12:10  -   -   -  20 25 mph 1017.8mb 83f 82f
12:00  -   -   -  20 25 mph 1017.8mb 83f 82f
11:50 4.5ft 7s 5s 18 25 mph 1017.8mb 83f 82f
11:40  -   -   -  18 22 mph 1017.6mb 83f 82f
11:30  -   -   -  18 22 mph 1017.6mb 83f 82f
11:20  -   -   -  16 22 mph 1017.5mb 83f 82f
11:10  -   -   -  16 22 mph 1017.5mb 83f 82f
11:00  -   -   -  18 20 mph 1017.3mb 83f 82f
10:50  -   -   -  16 22 mph 1017.3mb 83f 82f
10:40  -   -   -  18 20 mph 1017.3mb 83f 82f
10:30  -   -   -  18 22 mph 1017.3mb 83f 82f
10:20  -   -   -  18 22 mph 1017.1mb 83f 82f
10:10  -   -   -  18 20 mph 1017mb 83f 82f
10:00  -   -   -  16 20 mph 1017mb 83f 82f
9:50 4.5ft 7s 5s 16 18 mph 1017mb 83f 82f
9:40  -   -   -  16 18 mph 1017mb 83f 82f
9:30  -   -   -  13 18 mph 1017mb 83f 82f
9:20  -   -   -  13 18 mph 1017mb 83f 82f
9:10  -   -   -  13 18 mph 1016.9mb 83f 82f
9:00  -   -   -  13 18 mph 1016.9mb 83f 82f
8:50 4.5ft 7s 5s 16 18 mph 1016.8mb 83f 82f
8:40  -   -   -  16 20 mph 1016.6mb 83f 82f
8:30  -   -   -  16 18 mph 1016.6mb 83f 82f
8:20  -   -   -  16 20 mph 1016.5mb 83f 82f
8:10  -   -   -  16 20 mph 1016.4mb 83f 82f
8:00  -   -   -  13 18 mph 1016.1mb 83f 82f
7:50 4.5ft 7s 5s 13 18 mph 1016.1mb 83f 82f
7:40  -   -   -  13 18 mph 1016mb 83f 82f
7:30  -   -   -  16 18 mph 1016mb 83f 81f
7:20  -   -   -  16 20 mph 1015.9mb 83f 82f
7:10  -   -   -  16 20 mph 1016mb 83f 82f
7:00  -   -   -  18 20 mph 1015.9mb 83f 82f
6:50 4.5ft 7s 5s 18 22 mph 1016mb 83f 81f
6:40  -   -   -  16 22 mph 1016mb 83f 81f
6:30  -   -   -  16 20 mph 1016mb 83f 82f
6:20  -   -   -  16 18 mph 1016mb 83f 82f
6:10  -   -   -  13 18 mph 1015.9mb 83f 82f
6:00  -   -   -  13 18 mph 1015.6mb 83f 82f
5:50 4.5ft 7s 5s 13 16 mph 1015.5mb 83f 82f
5:40  -   -   -  13 18 mph 1015.4mb 83f 82f
5:30  -   -   -  13 16 mph 1015.5mb 83f 82f
5:20  -   -   -  13 16 mph 1015.4mb 83f 82f
5:10  -   -   -  13 18 mph 1015.5mb 83f 82f
5:00  -   -   -  13 18 mph 1015.5mb 83f 82f
4:50 4.5ft 6s 5s 16 18 mph 1015.5mb 83f 82f
4:40  -   -   -  16 20 mph 1015.6mb 83f 82f
4:30  -   -   -  16 20 mph 1015.6mb 83f 82f
4:20  -   -   -  16 20 mph 1015.5mb 83f 82f
4:10  -   -   -  18 22 mph 1015.5mb 83f 82f
4:00  -   -   -  18 20 mph 1015.5mb 83f 82f
3:50 4.5ft 7s 5s 18 20 mph 1015.5mb 83f 82f
3:40  -   -   -  18 20 mph 1015.6mb 83f 82f
3:30  -   -   -  18 20 mph 1015.8mb 83f 82f
3:20  -   -   -  16 20 mph 1015.9mb 83f 82f
3:10  -   -   -  16 20 mph 1016mb 83f 82f
3:00  -   -   -  18 22 mph 1016mb 83f 82f
2:50 4.5ft 7s 5s 16 22 mph 1016mb 83f 82f
2:40  -   -   -  16 18 mph 1016mb 83f 82f
2:30  -   -   -  16 18 mph 1016.1mb 83f 82f
2:20  -   -   -  16 20 mph 1016mb 83f 82f
2:10  -   -   -  16 20 mph 1016.1mb 83f 82f
2:00  -   -   -  16 20 mph 1016.1mb 83f 82f
1:50 4ft 7s 5s 18 20 mph 1016.1mb 83f 82f
1:40  -   -   -  16 22 mph 1016.3mb 83f 82f
1:30  -   -   -  16 20 mph 1016.4mb 83f 82f
1:20  -   -   -  16 20 mph 1016.5mb 83f 82f
1:10  -   -   -  16 20 mph 1016.5mb 83f 82f
1:00  -   -   -  18 20 mph 1016.4mb 83f 82f
12:50 4.5ft 7s 5s 18 22 mph 1016.5mb 83f 82f
12:40  -   -   -  16 20 mph 1016.5mb 83f 82f
12:30  -   -   -  16 20 mph 1016.5mb 83f 82f
12:20  -   -   -  16 18 mph 1016.6mb 83f 82f
12:10  -   -   -  16 20 mph 1016.5mb 83f 82f
12:00  -   -   -  16 20 mph 1016.5mb 83f 82f
Qua 07/29 11:50 4.5ft 7s 5s 16 20 mph 1016.5mb 83f 82f
11:40  -   -   -  16 20 mph 1016.5mb 83f 81f
11:30  -   -   -  16 20 mph 1016.6mb 83f 81f
11:20  -   -   -  16 20 mph 1016.6mb 83f 81f
11:10  -   -   -  16 18 mph 1016.6mb 83f 81f
11:00  -   -   -  13 18 mph 1016.6mb 83f 81f
10:50 4.5ft 7s 5s 11 16 mph 1016.5mb 83f 81f
10:40  -   -   -  13 18 mph 1016.6mb 83f 81f
10:30  -   -   -  13 16 mph 1016.5mb 83f 81f
10:20  -   -   -  11 16 mph 1016.6mb 83f 81f
10:10  -   -   -  13 16 mph 1016.5mb 83f 81f
10:00  -   -   -  13 16 mph 1016.5mb 83f 81f
9:50 4ft 7s 5s 13 16 mph 1016.4mb 83f 81f
9:40  -   -   -  13 16 mph 1016.5mb 83f 81f
9:30  -   -   -  13 16 mph 1016.3mb 83f 81f
9:20  -   -   -  11 16 mph 1016.4mb 83f 81f
9:10  -   -   -  11 13 mph 1016.3mb 83f 81f
9:00  -   -   -  11 13 mph 1016.1mb 83f 81f
8:50 4.5ft 7s 5s 11 13 mph 1016mb 83f 81f
8:40  -   -   -  11 16 mph 1016mb 83f 81f
8:30  -   -   -  13 16 mph 1016.1mb 82f 81f
8:20  -   -   -  13 16 mph 1016mb 82f 81f
8:10  -   -   -  13 16 mph 1015.9mb 82f 80f
8:00  -   -   -  13 18 mph 1015.9mb 82f 81f
7:50 4.5ft 7s 5s 13 18 mph 1015.9mb 82f 81f
7:40  -   -   -  11 16 mph 1015.9mb 82f 81f
7:30  -   -   -  13 16 mph 1015.9mb 82f 80f
7:20  -   -   -  13 16 mph 1015.9mb 82f 80f
7:10  -   -   -  13 16 mph 1015.9mb 82f 80f
7:00  -   -   -  13 18 mph 1015.8mb 82f 80f
6:50 4.5ft 7s 5s 16 18 mph 1015.8mb 82f 80f
6:40 4.5ft  -  5s 13 18 mph 1015.6mb 82f 80f
6:30  -   -   -  16 18 mph 1015.6mb 82f 80f
6:20  -   -   -  16 18 mph 1015.6mb 82f 80f
6:10  -   -   -  16 20 mph 1015.6mb 83f 80f
6:00  -   -   -  16 20 mph 1015.8mb 83f 80f
5:50 4.5ft 7s 5s 16 20 mph 1015.8mb 82f 80f
5:40  -   -   -  16 20 mph 1015.6mb 83f 80f
5:30  -   -   -  16 20 mph 1015.5mb 83f 81f
5:20  -   -   -  16 20 mph 1015.5mb 83f 81f
5:10  -   -   -  16 20 mph 1015.6mb 83f 81f
5:00  -   -   -  16 18 mph 1015.9mb 83f 81f
4:50  -   -   -  16 18 mph 1016mb 83f 81f
4:40  -   -   -  13 18 mph 1016.1mb 83f 81f
4:30  -   -   -  16 18 mph 1016.1mb 83f 81f
4:20  -   -   -  16 20 mph 1016.1mb 83f 81f
4:10  -   -   -  16 20 mph 1016.1mb 83f 81f
4:00  -   -   -  16 20 mph 1016.3mb 83f 81f
3:50 4ft 7s 5s 18 20 mph 1016.5mb 83f 81f
3:40  -   -   -  18 22 mph 1016.1mb 83f 80f
3:30  -   -   -  18 22 mph 1016mb 83f 80f
3:20  -   -   -  20 25 mph 1016.4mb 83f 80f
3:10  -   -   -  18 22 mph 1016.3mb 83f 81f
3:00  -   -   -  18 22 mph 1016.3mb 83f 81f
2:50 4.5ft 8s 5s 18 20 mph 1016.5mb 83f 81f
2:40  -   -   -  18 22 mph 1016.6mb 83f 81f
2:30  -   -   -  18 20 mph 1016.8mb 83f 81f
2:20  -   -   -  18 20 mph 1017mb 83f 81f
2:10  -   -   -  18 20 mph 1017.1mb 83f 81f
2:00  -   -   -  18 20 mph 1017.3mb 83f 81f
1:50 4.5ft 8s 5s 16 20 mph 1017.3mb 83f 81f
1:40 4.5ft  -  5s 16 20 mph 1017.1mb 83f 81f
1:30  -   -   -  16 20 mph 1017.1mb 83f 81f
1:20  -   -   -  16 20 mph 1017.3mb 83f 81f
1:10  -   -   -  16 18 mph 1017.3mb 83f 81f
1:00  -   -   -  16 18 mph 1017.1mb 83f 81f
12:50 4ft 8s 5s 16 18 mph 1017.3mb 83f 81f
11:50 4.5ft 8s 6s 13 18 mph 1017.4mb 83f 80f
11:40  -   -   -  13 16 mph 1017.5mb 83f 81f
11:30  -   -   -  11 16 mph 1017.6mb 83f 80f
11:20  -   -   -  11 16 mph 1017.5mb 83f 81f
11:10  -   -   -  11 16 mph 1017.1mb 83f 80f
11:00  -   -   -  11 16 mph 1017.1mb 83f 80f
10:50 4.5ft 8s 6s 13 16 mph 1017mb 83f 80f
10:40  -   -   -  11 16 mph 1017mb 83f 80f
10:30  -   -   -  13 16 mph 1016.9mb 83f 80f
10:20  -   -   -  11 16 mph 1017mb 83f 80f
10:10  -   -   -  11 13 mph 1017mb 83f 80f
10:00  -   -   -  11 16 mph 1017.1mb 83f 80f
9:50 4.5ft 8s 6s 11 16 mph 1017.1mb 83f 80f
9:40  -   -   -  11 16 mph 1017.3mb 83f 80f
9:30  -   -   -  11 13 mph 1017.4mb 83f 80f
9:20  -   -   -  11 13 mph 1017.3mb 83f 80f
9:10  -   -   -  11 16 mph 1017.3mb 83f 80f
9:00  -   -   -  11 13 mph 1017.4mb 83f 80f
8:50 4.5ft 8s 6s 11 13 mph 1017.4mb 83f 80f
8:40  -   -   -  11 16 mph 1017.5mb 83f 80f
8:30  -   -   -  11 16 mph 1017.1mb 83f 80f
8:20  -   -   -  13 16 mph 1017mb 83f 80f
8:10  -   -   -  13 16 mph 1017mb 83f 80f
8:00  -   -   -  11 16 mph 1016.9mb 83f 80f
7:50 4.5ft 7s 6s 11 16 mph 1016.6mb 83f 80f
7:40  -   -   -  11 18 mph 1016.5mb 83f 80f
7:30  -   -   -  13 16 mph 1016.5mb 83f 80f
7:20  -   -   -  11 16 mph 1016.3mb 83f 80f
7:10  -   -   -  11 16 mph 1016.1mb 83f 80f
7:00  -   -   -  11 13 mph 1016.3mb 83f 80f
6:50 4ft 8s 6s 11 13 mph 1016.3mb 83f 80f
6:40 4ft  -  6s 11 13 mph 1016.3mb 83f 80f
6:30  -   -   -  11 13 mph 1016.1mb 83f 80f
6:20  -   -   -  11 16 mph 1016mb 83f 80f
6:10  -   -   -  11 16 mph 1016mb 83f 80f
6:00  -   -   -  11 16 mph 1016mb 83f 80f
5:50 3.5ft 8s 6s 11 16 mph 1016mb 83f 80f
5:40  -   -   -  11 16 mph 1015.9mb 83f 80f
5:30  -   -   -  11 16 mph 1016mb 83f 80f
5:20  -   -   -  13 16 mph 1016mb 83f 80f
5:10  -   -   -  11 16 mph 1015.9mb 83f 80f
5:00  -   -   -  11 16 mph 1015.8mb 83f 80f
4:50 3.5ft 8s 6s 11 16 mph 1015.8mb 83f 80f
4:40 3.5ft  -  6s 11 13 mph 1015.6mb 83f 80f
4:30  -   -   -  11 13 mph 1015.5mb 83f 80f
4:20  -   -   -  11 16 mph 1015.5mb 83f 80f
4:10  -   -   -  11 13 mph 1015.5mb 83f 80f
4:00  -   -   -  11 13 mph 1015.5mb 83f 80f
3:50 3.5ft 8s 6s 9 13 mph 1015.5mb 83f 80f
3:40  -   -   -  11 13 mph 1015.5mb 83f 80f
3:30  -   -   -  11 13 mph 1015.5mb 83f 80f
3:20  -   -   -  11 13 mph 1015.6mb 83f 80f
3:10  -   -   -  9 13 mph 1015.6mb 83f 80f
3:00  -   -   -  11 13 mph 1015.6mb 83f 80f
2:50 3.5ft 8s 6s 11 13 mph 1015.9mb 83f 80f
2:40  -   -   -  11 13 mph 1016mb 83f 80f
2:30  -   -   -  11 13 mph 1016mb 83f 80f
2:20  -   -   -  11 13 mph 1016mb 83f 80f
2:10  -   -   -  9 13 mph 1016.1mb 83f 80f
2:00  -   -   -  9 13 mph 1016.4mb 83f 80f
1:50 3.5ft 7s 6s 11 13 mph 1016.5mb 83f 80f
1:40  -   -   -  11 13 mph 1016.5mb 83f 80f
1:30  -   -   -  9 13 mph 1016.5mb 83f 80f
1:20  -   -   -  9 13 mph 1016.6mb 83f 80f
1:10  -   -   -  11 13 mph 1016.5mb 83f 80f
1:00  -   -   -  9 11 mph 1016.6mb 83f 80f
12:50 4ft 8s 6s 9 13 mph 1016.6mb 83f 80f
12:40  -   -   -  11 13 mph 1016.6mb 83f 80f
12:30  -   -   -  11 13 mph 1016.6mb 83f 80f
12:20  -   -   -  9 18 mph 1016.8mb 83f 80f
12:10  -   -   -  9 11 mph 1016.9mb 83f 80f
12:00  -   -   -  9 13 mph 1017mb 83f 80f
Ter 07/28 11:50 4ft 7s 6s 9 13 mph 1017.1mb 83f 80f